sensor_id;sensor_type;location;lat;lon;timestamp;pressure;altitude;pressure_sealevel;temperature;humidity
22653;BME280;11493;43.344;26.226;2023-08-24T00:00:22;99188.19;;;24.87;74.81
22653;BME280;11493;43.344;26.226;2023-08-24T00:02:49;99197.81;;;24.89;75.18
22653;BME280;11493;43.344;26.226;2023-08-24T00:05:16;99162.56;;;24.74;74.83
22653;BME280;11493;43.344;26.226;2023-08-24T00:07:43;99183.31;;;24.95;74.75
22653;BME280;11493;43.344;26.226;2023-08-24T00:10:11;99193.34;;;24.96;75.35
22653;BME280;11493;43.344;26.226;2023-08-24T00:12:38;99185.72;;;24.93;75.46
22653;BME280;11493;43.344;26.226;2023-08-24T00:15:08;99174.50;;;24.89;75.54
22653;BME280;11493;43.344;26.226;2023-08-24T00:17:36;99176.13;;;24.86;75.33
22653;BME280;11493;43.344;26.226;2023-08-24T00:20:05;99186.13;;;24.95;75.89
22653;BME280;11493;43.344;26.226;2023-08-24T00:22:34;99178.09;;;24.93;76.31
22653;BME280;11493;43.344;26.226;2023-08-24T00:25:01;99158.88;;;24.81;76.23
22653;BME280;11493;43.344;26.226;2023-08-24T00:27:28;99182.91;;;24.93;76.16
22653;BME280;11493;43.344;26.226;2023-08-24T00:29:55;99181.72;;;24.90;76.23
22653;BME280;11493;43.344;26.226;2023-08-24T00:32:23;99183.31;;;24.95;76.38
22653;BME280;11493;43.344;26.226;2023-08-24T00:34:50;99185.78;;;24.85;76.50
22653;BME280;11493;43.344;26.226;2023-08-24T00:37:17;99182.19;;;24.81;76.70
22653;BME280;11493;43.344;26.226;2023-08-24T00:39:44;99189.81;;;24.84;76.34
22653;BME280;11493;43.344;26.226;2023-08-24T00:42:11;99176.97;;;24.80;75.72
22653;BME280;11493;43.344;26.226;2023-08-24T00:44:42;99186.72;;;24.68;76.05
22653;BME280;11493;43.344;26.226;2023-08-24T00:47:11;99179.19;;;24.54;76.42
22653;BME280;11493;43.344;26.226;2023-08-24T00:49:38;99167.66;;;24.42;76.69
22653;BME280;11493;43.344;26.226;2023-08-24T00:52:05;99167.66;;;24.42;77.00
22653;BME280;11493;43.344;26.226;2023-08-24T00:54:32;99172.75;;;24.54;77.22
22653;BME280;11493;43.344;26.226;2023-08-24T00:56:59;99170.78;;;24.51;77.22
22653;BME280;11493;43.344;26.226;2023-08-24T00:59:26;99153.16;;;24.47;77.35
22653;BME280;11493;43.344;26.226;2023-08-24T01:01:54;99175.88;;;24.67;76.96
22653;BME280;11493;43.344;26.226;2023-08-24T01:04:22;99180.25;;;24.71;76.74
22653;BME280;11493;43.344;26.226;2023-08-24T01:06:50;99172.28;;;24.66;77.42
22653;BME280;11493;43.344;26.226;2023-08-24T01:09:19;99165.06;;;24.62;77.37
22653;BME280;11493;43.344;26.226;2023-08-24T01:12:00;99165.09;;;24.58;77.13
22653;BME280;11493;43.344;26.226;2023-08-24T01:15:04;99176.38;;;24.54;77.36
22653;BME280;11493;43.344;26.226;2023-08-24T01:17:35;99168.72;;;24.55;76.91
22653;BME280;11493;43.344;26.226;2023-08-24T01:20:04;99146.00;;;24.35;77.36
22653;BME280;11493;43.344;26.226;2023-08-24T01:22:51;99169.25;;;24.39;77.76
22653;BME280;11493;43.344;26.226;2023-08-24T01:27:57;99173.31;;;24.35;77.69
22653;BME280;11493;43.344;26.226;2023-08-24T01:30:25;99155.25;;;24.25;77.90
22653;BME280;11493;43.344;26.226;2023-08-24T01:32:53;99164.53;;;24.26;78.21
22653;BME280;11493;43.344;26.226;2023-08-24T01:35:20;99169.75;;;24.27;78.12
22653;BME280;11493;43.344;26.226;2023-08-24T01:37:47;99156.94;;;24.12;78.53
22653;BME280;11493;43.344;26.226;2023-08-24T01:40:20;99161.34;;;24.13;78.80
22653;BME280;11493;43.344;26.226;2023-08-24T01:42:57;99166.59;;;24.07;79.24
22653;BME280;11493;43.344;26.226;2023-08-24T01:45:29;99151.34;;;24.05;79.57
22653;BME280;11493;43.344;26.226;2023-08-24T01:47:59;99161.78;;;24.08;79.58
22653;BME280;11493;43.344;26.226;2023-08-24T01:50:27;99154.19;;;24.01;79.40
22653;BME280;11493;43.344;26.226;2023-08-24T01:52:55;99148.13;;;24.06;79.68
22653;BME280;11493;43.344;26.226;2023-08-24T01:55:23;99159.78;;;24.05;80.28
22653;BME280;11493;43.344;26.226;2023-08-24T01:57:50;99149.75;;;24.04;80.34
22653;BME280;11493;43.344;26.226;2023-08-24T02:00:17;99150.91;;;24.13;79.90
22653;BME280;11493;43.344;26.226;2023-08-24T02:02:46;99162.94;;;24.17;80.47
22653;BME280;11493;43.344;26.226;2023-08-24T02:05:13;99153.38;;;24.01;80.78
22653;BME280;11493;43.344;26.226;2023-08-24T02:07:40;99166.16;;;24.16;80.67
22653;BME280;11493;43.344;26.226;2023-08-24T02:10:08;99165.34;;;24.19;80.45
22653;BME280;11493;43.344;26.226;2023-08-24T02:12:35;99155.75;;;24.09;80.75
22653;BME280;11493;43.344;26.226;2023-08-24T02:15:02;99167.78;;;24.13;80.89
22653;BME280;11493;43.344;26.226;2023-08-24T02:17:29;99155.69;;;24.20;81.20
22653;BME280;11493;43.344;26.226;2023-08-24T02:19:56;99148.47;;;24.26;80.70
22653;BME280;11493;43.344;26.226;2023-08-24T02:22:23;99139.63;;;24.28;80.37
22653;BME280;11493;43.344;26.226;2023-08-24T02:24:50;99133.59;;;24.18;81.19
22653;BME280;11493;43.344;26.226;2023-08-24T02:27:17;99143.28;;;24.14;81.58
22653;BME280;11493;43.344;26.226;2023-08-24T02:29:44;99158.09;;;24.21;81.25
22653;BME280;11493;43.344;26.226;2023-08-24T02:32:15;99145.63;;;24.22;80.14
22653;BME280;11493;43.344;26.226;2023-08-24T02:34:42;99135.22;;;24.16;79.82
22653;BME280;11493;43.344;26.226;2023-08-24T02:37:09;99135.63;;;24.18;79.88
22653;BME280;11493;43.344;26.226;2023-08-24T02:39:36;99150.84;;;24.28;79.23
22653;BME280;11493;43.344;26.226;2023-08-24T02:42:03;99136.47;;;24.08;79.94
22653;BME280;11493;43.344;26.226;2023-08-24T02:44:30;99153.34;;;24.08;80.29
22653;BME280;11493;43.344;26.226;2023-08-24T02:46:58;99143.75;;;23.98;80.72
22653;BME280;11493;43.344;26.226;2023-08-24T02:49:25;99146.97;;;23.97;80.93
22653;BME280;11493;43.344;26.226;2023-08-24T02:51:52;99117.44;;;23.71;80.91
22653;BME280;11493;43.344;26.226;2023-08-24T02:54:19;99135.41;;;23.84;81.29
22653;BME280;11493;43.344;26.226;2023-08-24T02:56:48;99138.63;;;23.82;81.03
22653;BME280;11493;43.344;26.226;2023-08-24T02:59:15;99137.81;;;23.85;81.50
22653;BME280;11493;43.344;26.226;2023-08-24T03:01:42;99147.78;;;23.93;81.28
22653;BME280;11493;43.344;26.226;2023-08-24T03:04:09;99147.78;;;23.93;82.02
22653;BME280;11493;43.344;26.226;2023-08-24T03:06:36;99140.59;;;23.89;81.87
22653;BME280;11493;43.344;26.226;2023-08-24T03:09:03;99141.00;;;23.87;81.40
22653;BME280;11493;43.344;26.226;2023-08-24T03:11:31;99154.19;;;24.01;81.27
22653;BME280;11493;43.344;26.226;2023-08-24T03:13:58;99151.81;;;23.96;81.16
22653;BME280;11493;43.344;26.226;2023-08-24T03:16:26;99150.31;;;23.74;82.62
22653;BME280;11493;43.344;26.226;2023-08-24T03:18:53;99151.94;;;23.68;83.32
22653;BME280;11493;43.344;26.226;2023-08-24T03:21:20;99144.75;;;23.52;83.79
22653;BME280;11493;43.344;26.226;2023-08-24T03:23:48;99155.19;;;23.59;83.70
22653;BME280;11493;43.344;26.226;2023-08-24T03:26:14;99139.94;;;23.49;83.74
22653;BME280;11493;43.344;26.226;2023-08-24T03:28:43;99154.41;;;23.44;84.76
22653;BME280;11493;43.344;26.226;2023-08-24T03:31:10;99134.41;;;23.24;84.96
22653;BME280;11493;43.344;26.226;2023-08-24T03:33:37;99146.41;;;23.25;85.60
22653;BME280;11493;43.344;26.226;2023-08-24T03:36:04;99149.22;;;23.25;85.44
22653;BME280;11493;43.344;26.226;2023-08-24T03:38:31;99152.44;;;23.27;85.62
22653;BME280;11493;43.344;26.226;2023-08-24T03:41:02;99125.59;;;23.12;85.43
22653;BME280;11493;43.344;26.226;2023-08-24T03:43:34;99158.44;;;23.29;85.40
22653;BME280;11493;43.344;26.226;2023-08-24T03:46:01;99152.81;;;23.33;85.10
22653;BME280;11493;43.344;26.226;2023-08-24T03:48:31;99151.22;;;23.35;85.35
22653;BME280;11493;43.344;26.226;2023-08-24T03:50:59;99137.59;;;23.19;85.57
22653;BME280;11493;43.344;26.226;2023-08-24T03:53:26;99150.03;;;23.25;85.78
22653;BME280;11493;43.344;26.226;2023-08-24T03:55:54;99164.03;;;23.43;84.73
22653;BME280;11493;43.344;26.226;2023-08-24T03:58:21;99168.84;;;23.39;84.86
22653;BME280;11493;43.344;26.226;2023-08-24T04:00:51;99177.66;;;23.48;84.75
22653;BME280;11493;43.344;26.226;2023-08-24T04:03:18;99185.69;;;23.46;84.94
22653;BME280;11493;43.344;26.226;2023-08-24T04:05:45;99186.09;;;23.48;85.12
22653;BME280;11493;43.344;26.226;2023-08-24T04:08:12;99184.88;;;23.53;85.22
22653;BME280;11493;43.344;26.226;2023-08-24T04:10:39;99150.00;;;23.40;85.75
22653;BME280;11493;43.344;26.226;2023-08-24T04:13:06;99176.84;;;23.66;84.86
22653;BME280;11493;43.344;26.226;2023-08-24T04:15:35;99175.56;;;23.77;84.52
22653;BME280;11493;43.344;26.226;2023-08-24T04:18:03;99184.03;;;23.74;84.69
22653;BME280;11493;43.344;26.226;2023-08-24T04:20:30;99182.34;;;23.87;83.85
22653;BME280;11493;43.344;26.226;2023-08-24T04:22:57;99191.91;;;24.07;82.16
22653;BME280;11493;43.344;26.226;2023-08-24T04:25:24;99186.22;;;24.18;81.99
22653;BME280;11493;43.344;26.226;2023-08-24T04:27:51;99190.66;;;24.15;82.18
22653;BME280;11493;43.344;26.226;2023-08-24T04:30:19;99191.88;;;24.11;81.67
22653;BME280;11493;43.344;26.226;2023-08-24T04:32:46;99200.31;;;24.14;81.90
22653;BME280;11493;43.344;26.226;2023-08-24T04:35:13;99189.91;;;24.04;81.97
22653;BME280;11493;43.344;26.226;2023-08-24T04:37:40;99196.69;;;24.10;82.15
22653;BME280;11493;43.344;26.226;2023-08-24T04:40:07;99193.09;;;24.06;82.34
22653;BME280;11493;43.344;26.226;2023-08-24T04:42:35;99209.16;;;24.09;82.29
22653;BME280;11493;43.344;26.226;2023-08-24T04:45:02;99201.91;;;24.12;82.09
22653;BME280;11493;43.344;26.226;2023-08-24T04:47:29;99206.72;;;24.18;82.03
22653;BME280;11493;43.344;26.226;2023-08-24T04:49:56;99214.34;;;24.18;82.61
22653;BME280;11493;43.344;26.226;2023-08-24T04:52:23;99203.06;;;24.21;81.31
22653;BME280;11493;43.344;26.226;2023-08-24T04:54:51;99210.69;;;24.28;81.24
22653;BME280;11493;43.344;26.226;2023-08-24T04:57:18;99211.13;;;24.27;82.52
22653;BME280;11493;43.344;26.226;2023-08-24T04:59:46;99199.88;;;24.19;82.49
22653;BME280;11493;43.344;26.226;2023-08-24T05:02:13;99224.72;;;24.39;81.76
22653;BME280;11493;43.344;26.226;2023-08-24T05:04:41;99221.06;;;24.45;81.01
22653;BME280;11493;43.344;26.226;2023-08-24T05:07:08;99219.78;;;24.53;80.52
22653;BME280;11493;43.344;26.226;2023-08-24T05:09:35;99219.28;;;24.69;79.97
22653;BME280;11493;43.344;26.226;2023-08-24T05:12:02;99234.09;;;24.77;79.60
22653;BME280;11493;43.344;26.226;2023-08-24T05:14:29;99227.22;;;24.81;79.38
22653;BME280;11493;43.344;26.226;2023-08-24T05:16:56;99226.44;;;24.77;79.80
22653;BME280;11493;43.344;26.226;2023-08-24T05:19:23;99248.84;;;24.99;78.87
22653;BME280;11493;43.344;26.226;2023-08-24T05:21:50;99235.09;;;25.08;78.37
22653;BME280;11493;43.344;26.226;2023-08-24T05:24:17;99242.72;;;25.11;77.77
22653;BME280;11493;43.344;26.226;2023-08-24T05:26:44;99224.22;;;25.10;77.85
22653;BME280;11493;43.344;26.226;2023-08-24T05:29:11;99250.56;;;25.30;77.26
22653;BME280;11493;43.344;26.226;2023-08-24T05:31:38;99217.59;;;25.27;76.95
22653;BME280;11493;43.344;26.226;2023-08-24T05:34:04;99237.88;;;25.52;76.32
22653;BME280;11493;43.344;26.226;2023-08-24T05:36:32;99237.78;;;25.67;76.06
22653;BME280;11493;43.344;26.226;2023-08-24T05:38:59;99225.28;;;25.68;75.11
22653;BME280;11493;43.344;26.226;2023-08-24T05:41:32;99229.09;;;25.88;74.91
22653;BME280;11493;43.344;26.226;2023-08-24T05:43:59;99226.56;;;25.97;74.85
22653;BME280;11493;43.344;26.226;2023-08-24T05:46:28;99227.28;;;26.01;74.93
22653;BME280;11493;43.344;26.226;2023-08-24T05:48:57;99220.75;;;26.08;74.09
22653;BME280;11493;43.344;26.226;2023-08-24T05:51:25;99240.31;;;26.22;73.71
22653;BME280;11493;43.344;26.226;2023-08-24T05:53:53;99239.81;;;26.34;73.64
22653;BME280;11493;43.344;26.226;2023-08-24T05:56:22;99232.03;;;26.42;73.01
22653;BME280;11493;43.344;26.226;2023-08-24T05:58:49;99226.31;;;26.49;71.56
22653;BME280;11493;43.344;26.226;2023-08-24T06:01:16;99235.38;;;26.64;71.37
22653;BME280;11493;43.344;26.226;2023-08-24T06:03:43;99238.38;;;26.76;70.80
22653;BME280;11493;43.344;26.226;2023-08-24T06:06:10;99233.38;;;26.88;70.00
22653;BME280;11493;43.344;26.226;2023-08-24T06:08:37;99228.03;;;26.93;69.02
22653;BME280;11493;43.344;26.226;2023-08-24T06:11:04;99241.47;;;27.12;68.77
22653;BME280;11493;43.344;26.226;2023-08-24T06:13:31;99224.94;;;27.11;67.46
22653;BME280;11493;43.344;26.226;2023-08-24T06:15:58;99243.56;;;27.32;67.42
22653;BME280;11493;43.344;26.226;2023-08-24T06:18:25;99239.44;;;27.36;66.38
22653;BME280;11493;43.344;26.226;2023-08-24T06:20:53;99242.94;;;27.44;66.69
22653;BME280;11493;43.344;26.226;2023-08-24T06:23:20;99247.91;;;27.60;66.60
22653;BME280;11493;43.344;26.226;2023-08-24T06:25:48;99242.13;;;27.67;66.15
22653;BME280;11493;43.344;26.226;2023-08-24T06:28:15;99257.66;;;27.78;66.32
22653;BME280;11493;43.344;26.226;2023-08-24T06:30:42;99249.03;;;27.86;66.03
22653;BME280;11493;43.344;26.226;2023-08-24T06:33:10;99250.28;;;28.04;65.25
22653;BME280;11493;43.344;26.226;2023-08-24T06:35:37;99251.25;;;28.18;64.54
22653;BME280;11493;43.344;26.226;2023-08-24T06:38:05;99244.72;;;28.21;64.39
22653;BME280;11493;43.344;26.226;2023-08-24T06:40:32;99258.63;;;28.31;63.84
22653;BME280;11493;43.344;26.226;2023-08-24T06:42:59;99263.19;;;28.45;63.16
22653;BME280;11493;43.344;26.226;2023-08-24T06:45:27;99268.34;;;28.50;62.47
22653;BME280;11493;43.344;26.226;2023-08-24T06:47:54;99235.31;;;28.43;61.90
22653;BME280;11493;43.344;26.226;2023-08-24T06:50:21;99263.53;;;28.67;61.92
22653;BME280;11493;43.344;26.226;2023-08-24T06:52:48;99242.91;;;28.66;61.87
22653;BME280;11493;43.344;26.226;2023-08-24T06:55:15;99265.38;;;28.93;61.24
22653;BME280;11493;43.344;26.226;2023-08-24T06:57:48;99246.94;;;28.85;61.57
22653;BME280;11493;43.344;26.226;2023-08-24T07:00:15;99246.16;;;29.01;61.27
22653;BME280;11493;43.344;26.226;2023-08-24T07:02:43;99271.47;;;29.24;60.34
22653;BME280;11493;43.344;26.226;2023-08-24T07:05:10;99252.09;;;29.23;59.98
22653;BME280;11493;43.344;26.226;2023-08-24T07:07:39;99254.13;;;29.38;59.66
22653;BME280;11493;43.344;26.226;2023-08-24T07:10:07;99251.03;;;29.49;59.90
22653;BME280;11493;43.344;26.226;2023-08-24T07:12:34;99258.19;;;29.70;59.52
22653;BME280;11493;43.344;26.226;2023-08-24T07:15:02;99260.00;;;29.76;58.38
22653;BME280;11493;43.344;26.226;2023-08-24T07:17:29;99259.16;;;29.92;56.70
22653;BME280;11493;43.344;26.226;2023-08-24T07:19:56;99259.25;;;30.05;55.95
22653;BME280;11493;43.344;26.226;2023-08-24T07:22:23;99264.28;;;30.14;54.76
22653;BME280;11493;43.344;26.226;2023-08-24T07:24:50;99254.31;;;30.22;54.18
22653;BME280;11493;43.344;26.226;2023-08-24T07:27:19;99250.91;;;30.27;54.43
22653;BME280;11493;43.344;26.226;2023-08-24T07:29:46;99246.97;;;30.37;54.60
22653;BME280;11493;43.344;26.226;2023-08-24T07:32:13;99259.47;;;30.52;55.09
22653;BME280;11493;43.344;26.226;2023-08-24T07:34:41;99264.38;;;30.64;54.89
22653;BME280;11493;43.344;26.226;2023-08-24T07:37:08;99241.53;;;30.55;54.76
22653;BME280;11493;43.344;26.226;2023-08-24T07:39:37;99257.81;;;30.67;52.92
22653;BME280;11493;43.344;26.226;2023-08-24T07:42:04;99254.50;;;30.69;52.51
22653;BME280;11493;43.344;26.226;2023-08-24T07:44:31;99240.88;;;30.77;52.51
22653;BME280;11493;43.344;26.226;2023-08-24T07:46:58;99255.31;;;30.95;51.84
22653;BME280;11493;43.344;26.226;2023-08-24T07:49:25;99255.44;;;31.04;51.57
22653;BME280;11493;43.344;26.226;2023-08-24T07:51:52;99231.56;;;31.01;52.09
22653;BME280;11493;43.344;26.226;2023-08-24T07:54:19;99246.09;;;31.29;51.46
22653;BME280;11493;43.344;26.226;2023-08-24T07:56:47;99247.88;;;31.35;51.83
22653;BME280;11493;43.344;26.226;2023-08-24T07:59:14;99244.00;;;31.42;51.58
22653;BME280;11493;43.344;26.226;2023-08-24T08:01:41;99252.50;;;31.55;50.14
22653;BME280;11493;43.344;26.226;2023-08-24T08:04:08;99249.66;;;31.55;50.15
22653;BME280;11493;43.344;26.226;2023-08-24T08:06:35;99242.06;;;31.52;50.16
22653;BME280;11493;43.344;26.226;2023-08-24T08:09:02;99253.00;;;31.41;50.07
22653;BME280;11493;43.344;26.226;2023-08-24T08:11:29;99230.50;;;31.33;50.76
22653;BME280;11493;43.344;26.226;2023-08-24T08:13:57;99233.00;;;31.31;51.24
22653;BME280;11493;43.344;26.226;2023-08-24T08:16:24;99232.00;;;31.25;51.20
22653;BME280;11493;43.344;26.226;2023-08-24T08:18:51;99239.69;;;31.37;51.76
22653;BME280;11493;43.344;26.226;2023-08-24T08:21:18;99235.13;;;31.53;52.35
22653;BME280;11493;43.344;26.226;2023-08-24T08:23:48;99234.53;;;31.58;51.17
22653;BME280;11493;43.344;26.226;2023-08-24T08:26:16;99219.25;;;31.64;51.46
22653;BME280;11493;43.344;26.226;2023-08-24T08:28:43;99225.19;;;31.70;50.38
22653;BME280;11493;43.344;26.226;2023-08-24T08:31:11;99216.97;;;31.72;50.73
22653;BME280;11493;43.344;26.226;2023-08-24T08:33:39;99223.47;;;31.73;51.13
22653;BME280;11493;43.344;26.226;2023-08-24T08:36:06;99207.41;;;31.66;50.17
22653;BME280;11493;43.344;26.226;2023-08-24T08:38:33;99199.59;;;31.70;49.46
22653;BME280;11493;43.344;26.226;2023-08-24T08:41:04;99215.88;;;31.91;50.13
22653;BME280;11493;43.344;26.226;2023-08-24T08:43:31;99209.56;;;31.96;49.15
22653;BME280;11493;43.344;26.226;2023-08-24T08:45:59;99209.41;;;32.22;48.95
22653;BME280;11493;43.344;26.226;2023-08-24T08:48:28;99214.53;;;32.27;48.92
22653;BME280;11493;43.344;26.226;2023-08-24T08:50:58;99195.56;;;32.24;47.76
22653;BME280;11493;43.344;26.226;2023-08-24T08:53:25;99208.81;;;32.49;46.18
22653;BME280;11493;43.344;26.226;2023-08-24T08:55:53;99206.50;;;32.56;47.11
22653;BME280;11493;43.344;26.226;2023-08-24T08:58:21;99210.31;;;32.62;46.40
22653;BME280;11493;43.344;26.226;2023-08-24T09:00:49;99209.22;;;32.69;46.35
22653;BME280;11493;43.344;26.226;2023-08-24T09:03:18;99204.63;;;32.72;45.84
22653;BME280;11493;43.344;26.226;2023-08-24T09:05:46;99186.59;;;32.65;45.54
22653;BME280;11493;43.344;26.226;2023-08-24T09:08:16;99203.56;;;32.78;46.23
22653;BME280;11493;43.344;26.226;2023-08-24T09:10:44;99207.25;;;32.88;46.92
22653;BME280;11493;43.344;26.226;2023-08-24T09:13:12;99200.94;;;32.93;45.89
22653;BME280;11493;43.344;26.226;2023-08-24T09:15:39;99203.97;;;32.98;45.99
22653;BME280;11493;43.344;26.226;2023-08-24T09:18:06;99175.09;;;32.87;45.31
22653;BME280;11493;43.344;26.226;2023-08-24T09:20:35;99193.22;;;33.03;44.83
22653;BME280;11493;43.344;26.226;2023-08-24T09:23:04;99194.97;;;33.09;45.37
22653;BME280;11493;43.344;26.226;2023-08-24T09:25:31;99185.16;;;33.19;44.71
22653;BME280;11493;43.344;26.226;2023-08-24T09:28:03;99176.28;;;33.08;44.69
22653;BME280;11493;43.344;26.226;2023-08-24T09:30:35;99179.31;;;33.23;44.54
22653;BME280;11493;43.344;26.226;2023-08-24T09:33:10;99170.16;;;33.28;44.48
22653;BME280;11493;43.344;26.226;2023-08-24T09:35:37;99176.16;;;33.21;44.22
22653;BME280;11493;43.344;26.226;2023-08-24T09:38:21;99180.75;;;33.27;44.61
22653;BME280;11493;43.344;26.226;2023-08-24T09:40:56;99175.72;;;33.32;44.71
22653;BME280;11493;43.344;26.226;2023-08-24T09:43:23;99172.88;;;33.32;43.70
22653;BME280;11493;43.344;26.226;2023-08-24T09:45:55;99175.09;;;33.37;43.97
22653;BME280;11493;43.344;26.226;2023-08-24T09:48:23;99176.34;;;33.54;44.20
22653;BME280;11493;43.344;26.226;2023-08-24T09:50:56;99156.69;;;33.56;43.35
22653;BME280;11493;43.344;26.226;2023-08-24T09:53:24;99149.25;;;33.58;43.20
22653;BME280;11493;43.344;26.226;2023-08-24T09:55:59;99157.00;;;33.67;43.46
22653;BME280;11493;43.344;26.226;2023-08-24T09:58:27;99146.22;;;33.71;43.48
22653;BME280;11493;43.344;26.226;2023-08-24T10:00:55;99160.00;;;34.00;42.04
22653;BME280;11493;43.344;26.226;2023-08-24T10:03:26;99160.50;;;33.99;42.55
22653;BME280;11493;43.344;26.226;2023-08-24T10:05:54;99148.31;;;33.80;42.26
22653;BME280;11493;43.344;26.226;2023-08-24T10:08:37;99145.44;;;33.89;42.58
22653;BME280;11493;43.344;26.226;2023-08-24T10:11:06;99134.47;;;33.97;42.50
22653;BME280;11493;43.344;26.226;2023-08-24T10:14:05;99141.75;;;34.07;42.51
22653;BME280;11493;43.344;26.226;2023-08-24T10:16:36;99144.22;;;34.32;42.64
22653;BME280;11493;43.344;26.226;2023-08-24T10:19:04;99138.97;;;34.40;41.26
22653;BME280;11493;43.344;26.226;2023-08-24T10:21:31;99138.63;;;34.47;41.22
22653;BME280;11493;43.344;26.226;2023-08-24T10:23:59;99123.00;;;34.57;40.55
22653;BME280;11493;43.344;26.226;2023-08-24T10:26:28;99121.22;;;34.69;40.64
22653;BME280;11493;43.344;26.226;2023-08-24T10:28:57;99100.53;;;34.74;41.07
22653;BME280;11493;43.344;26.226;2023-08-24T10:31:25;99080.22;;;34.72;40.73
22653;BME280;11493;43.344;26.226;2023-08-24T10:33:54;99102.59;;;34.82;40.97
22653;BME280;11493;43.344;26.226;2023-08-24T10:36:22;99103.44;;;34.65;40.91
22653;BME280;11493;43.344;26.226;2023-08-24T10:38:50;99100.06;;;34.75;40.81
22653;BME280;11493;43.344;26.226;2023-08-24T10:41:17;99096.06;;;34.82;40.97
22653;BME280;11493;43.344;26.226;2023-08-24T10:43:50;99086.75;;;34.72;41.32
22653;BME280;11493;43.344;26.226;2023-08-24T10:46:17;99058.44;;;34.50;41.47
22653;BME280;11493;43.344;26.226;2023-08-24T10:53:51;99081.75;;;34.16;42.32
22653;BME280;11493;43.344;26.226;2023-08-24T10:56:19;99078.78;;;34.10;42.67
22653;BME280;11493;43.344;26.226;2023-08-24T10:58:47;99071.97;;;34.08;42.94
22653;BME280;11493;43.344;26.226;2023-08-24T11:01:35;99067.53;;;34.07;42.82
22653;BME280;11493;43.344;26.226;2023-08-24T11:04:05;99053.31;;;34.31;41.47
22653;BME280;11493;43.344;26.226;2023-08-24T11:06:35;99034.50;;;34.48;39.83
22653;BME280;11493;43.344;26.226;2023-08-24T11:09:17;99038.25;;;34.54;41.88
22653;BME280;11493;43.344;26.226;2023-08-24T11:11:59;99033.66;;;34.56;41.28
22653;BME280;11493;43.344;26.226;2023-08-24T11:14:27;99026.41;;;34.46;39.76
22653;BME280;11493;43.344;26.226;2023-08-24T11:17:01;99016.31;;;34.27;39.53
22653;BME280;11493;43.344;26.226;2023-08-24T11:19:51;99023.78;;;34.24;39.51
22653;BME280;11493;43.344;26.226;2023-08-24T11:22:19;99025.53;;;34.31;40.00
22653;BME280;11493;43.344;26.226;2023-08-24T11:24:47;99021.13;;;34.21;40.23
22653;BME280;11493;43.344;26.226;2023-08-24T11:27:15;99017.06;;;34.13;39.75
22653;BME280;11493;43.344;26.226;2023-08-24T11:29:43;99014.84;;;34.08;40.40
22653;BME280;11493;43.344;26.226;2023-08-24T11:32:10;99001.91;;;33.98;40.23
22653;BME280;11493;43.344;26.226;2023-08-24T11:34:38;99016.91;;;34.07;40.13
22653;BME280;11493;43.344;26.226;2023-08-24T11:37:05;99004.13;;;33.93;39.71
22653;BME280;11493;43.344;26.226;2023-08-24T11:39:33;99013.03;;;33.77;40.31
22653;BME280;11493;43.344;26.226;2023-08-24T11:42:04;98998.34;;;33.60;40.89
22653;BME280;11493;43.344;26.226;2023-08-24T11:44:58;98991.72;;;33.45;40.31
22653;BME280;11493;43.344;26.226;2023-08-24T11:47:25;98989.72;;;33.37;40.68
22653;BME280;11493;43.344;26.226;2023-08-24T11:49:52;98994.94;;;33.38;42.42
22653;BME280;11493;43.344;26.226;2023-08-24T11:52:19;98991.47;;;33.34;43.44
22653;BME280;11493;43.344;26.226;2023-08-24T11:54:46;98985.09;;;33.21;43.62
22653;BME280;11493;43.344;26.226;2023-08-24T11:57:13;99006.50;;;33.16;44.29
22653;BME280;11493;43.344;26.226;2023-08-24T11:59:42;98987.19;;;33.11;44.62
22653;BME280;11493;43.344;26.226;2023-08-24T12:02:10;98992.88;;;33.02;45.72
22653;BME280;11493;43.344;26.226;2023-08-24T12:04:40;98992.09;;;32.92;46.51
22653;BME280;11493;43.344;26.226;2023-08-24T12:07:14;99000.16;;;32.85;47.42
22653;BME280;11493;43.344;26.226;2023-08-24T12:09:42;99003.66;;;32.80;47.69
22653;BME280;11493;43.344;26.226;2023-08-24T12:14:41;99019.78;;;32.64;48.16
22653;BME280;11493;43.344;26.226;2023-08-24T12:17:10;99039.38;;;32.62;50.68
22653;BME280;11493;43.344;26.226;2023-08-24T12:19:37;99020.38;;;32.50;47.42
22653;BME280;11493;43.344;26.226;2023-08-24T12:22:13;99031.22;;;32.24;48.34
22653;BME280;11493;43.344;26.226;2023-08-24T12:24:47;99022.41;;;32.00;48.95
22653;BME280;11493;43.344;26.226;2023-08-24T12:27:22;99027.84;;;31.77;49.96
22653;BME280;11493;43.344;26.226;2023-08-24T12:29:50;99027.25;;;31.60;50.79
22653;BME280;11493;43.344;26.226;2023-08-24T12:32:17;99026.06;;;31.48;51.16
22653;BME280;11493;43.344;26.226;2023-08-24T12:34:50;99014.81;;;31.23;51.63
22653;BME280;11493;43.344;26.226;2023-08-24T12:37:22;99014.56;;;31.08;51.96
22653;BME280;11493;43.344;26.226;2023-08-24T12:39:49;99008.47;;;30.97;52.27
22653;BME280;11493;43.344;26.226;2023-08-24T12:42:16;99001.38;;;30.80;52.44
22653;BME280;11493;43.344;26.226;2023-08-24T12:44:43;99019.91;;;30.71;53.35
22653;BME280;11493;43.344;26.226;2023-08-24T12:47:10;99040.84;;;30.65;53.75
22653;BME280;11493;43.344;26.226;2023-08-24T12:49:37;99043.31;;;30.50;55.46
22653;BME280;11493;43.344;26.226;2023-08-24T12:52:04;99081.41;;;30.40;60.53
22653;BME280;11493;43.344;26.226;2023-08-24T12:54:31;99088.28;;;29.88;72.10
22653;BME280;11493;43.344;26.226;2023-08-24T12:56:58;99069.84;;;28.81;77.30
22653;BME280;11493;43.344;26.226;2023-08-24T12:59:25;99001.03;;;27.10;84.02
22653;BME280;11493;43.344;26.226;2023-08-24T13:01:52;99018.00;;;25.94;86.77
22653;BME280;11493;43.344;26.226;2023-08-24T13:04:20;98999.13;;;25.60;89.30
22653;BME280;11493;43.344;26.226;2023-08-24T13:06:47;99012.09;;;25.54;89.08